sensor_id;sensor_type;location;lat;lon;timestamp;temperature;humidity
37460;DHT22;23318;50.966;5.284;2023-01-29T00:01:53;-0.80;99.90
37460;DHT22;23318;50.966;5.284;2023-01-29T00:04:19;-0.90;99.90
37460;DHT22;23318;50.966;5.284;2023-01-29T00:06:45;-1.00;99.90
37460;DHT22;23318;50.966;5.284;2023-01-29T00:09:11;-1.00;99.90
37460;DHT22;23318;50.966;5.284;2023-01-29T00:11:38;-0.90;99.90
37460;DHT22;23318;50.966;5.284;2023-01-29T00:14:04;-0.80;99.90
37460;DHT22;23318;50.966;5.284;2023-01-29T00:16:29;-0.90;99.90
37460;DHT22;23318;50.966;5.284;2023-01-29T00:18:55;-0.90;99.90
37460;DHT22;23318;50.966;5.284;2023-01-29T00:21:21;-0.90;99.90
37460;DHT22;23318;50.966;5.284;2023-01-29T00:23:48;-0.90;99.90
37460;DHT22;23318;50.966;5.284;2023-01-29T00:26:14;-0.80;99.90
37460;DHT22;23318;50.966;5.284;2023-01-29T00:28:40;-0.90;99.90
37460;DHT22;23318;50.966;5.284;2023-01-29T00:31:21;-0.90;99.90
37460;DHT22;23318;50.966;5.284;2023-01-29T00:33:47;-1.00;99.90
37460;DHT22;23318;50.966;5.284;2023-01-29T00:36:14;-0.90;99.90
37460;DHT22;23318;50.966;5.284;2023-01-29T00:38:40;-1.10;99.90
37460;DHT22;23318;50.966;5.284;2023-01-29T00:41:13;-1.00;99.90
37460;DHT22;23318;50.966;5.284;2023-01-29T00:43:59;-1.00;99.90
37460;DHT22;23318;50.966;5.284;2023-01-29T00:46:43;-1.00;99.90
37460;DHT22;23318;50.966;5.284;2023-01-29T00:49:09;-1.10;99.90
37460;DHT22;23318;50.966;5.284;2023-01-29T00:51:37;-1.20;99.90
37460;DHT22;23318;50.966;5.284;2023-01-29T00:54:03;-1.10;99.90
37460;DHT22;23318;50.966;5.284;2023-01-29T00:56:32;-1.10;99.90
37460;DHT22;23318;50.966;5.284;2023-01-29T00:58:58;-1.00;99.90
37460;DHT22;23318;50.966;5.284;2023-01-29T01:01:23;-1.00;99.90
37460;DHT22;23318;50.966;5.284;2023-01-29T01:04:09;-1.00;99.90
37460;DHT22;23318;50.966;5.284;2023-01-29T01:06:39;-1.20;99.90
37460;DHT22;23318;50.966;5.284;2023-01-29T01:09:06;-1.10;99.90
37460;DHT22;23318;50.966;5.284;2023-01-29T01:11:50;-1.00;99.90
37460;DHT22;23318;50.966;5.284;2023-01-29T01:14:17;-0.90;99.90
37460;DHT22;23318;50.966;5.284;2023-01-29T01:16:44;-1.20;99.90
37460;DHT22;23318;50.966;5.284;2023-01-29T01:19:11;-1.20;99.90
37460;DHT22;23318;50.966;5.284;2023-01-29T01:21:37;-1.20;99.90
37460;DHT22;23318;50.966;5.284;2023-01-29T01:24:02;-1.30;99.90
37460;DHT22;23318;50.966;5.284;2023-01-29T01:26:33;-1.30;99.90
37460;DHT22;23318;50.966;5.284;2023-01-29T01:28:58;-1.20;99.90
37460;DHT22;23318;50.966;5.284;2023-01-29T01:31:24;-1.20;99.90
37460;DHT22;23318;50.966;5.284;2023-01-29T01:33:50;-1.40;99.90
37460;DHT22;23318;50.966;5.284;2023-01-29T01:36:18;-1.40;99.90
37460;DHT22;23318;50.966;5.284;2023-01-29T01:38:44;-1.50;99.90
37460;DHT22;23318;50.966;5.284;2023-01-29T01:41:11;-1.30;99.90
37460;DHT22;23318;50.966;5.284;2023-01-29T01:43:47;-1.30;99.90
37460;DHT22;23318;50.966;5.284;2023-01-29T01:46:13;-1.30;99.90
37460;DHT22;23318;50.966;5.284;2023-01-29T01:48:39;-1.30;99.90
37460;DHT22;23318;50.966;5.284;2023-01-29T01:51:05;-1.40;99.90
37460;DHT22;23318;50.966;5.284;2023-01-29T01:53:44;-1.30;99.90
37460;DHT22;23318;50.966;5.284;2023-01-29T01:56:20;-1.40;99.90
37460;DHT22;23318;50.966;5.284;2023-01-29T01:58:56;-1.50;99.90
37460;DHT22;23318;50.966;5.284;2023-01-29T02:01:24;-1.50;99.90
37460;DHT22;23318;50.966;5.284;2023-01-29T02:04:02;-1.40;99.90
37460;DHT22;23318;50.966;5.284;2023-01-29T02:06:47;-1.30;99.90
37460;DHT22;23318;50.966;5.284;2023-01-29T02:09:38;-1.40;99.90
37460;DHT22;23318;50.966;5.284;2023-01-29T02:12:12;-1.60;99.90
37460;DHT22;23318;50.966;5.284;2023-01-29T02:14:39;-1.40;99.90
37460;DHT22;23318;50.966;5.284;2023-01-29T02:17:07;-1.30;99.90
37460;DHT22;23318;50.966;5.284;2023-01-29T02:22:23;-1.50;99.90
37460;DHT22;23318;50.966;5.284;2023-01-29T02:31:23;-1.40;99.90
37460;DHT22;23318;50.966;5.284;2023-01-29T02:36:14;-1.50;99.90
37460;DHT22;23318;50.966;5.284;2023-01-29T02:41:47;-1.50;99.90
37460;DHT22;23318;50.966;5.284;2023-01-29T02:44:25;-1.50;99.90
37460;DHT22;23318;50.966;5.284;2023-01-29T02:50:04;-1.50;99.90
37460;DHT22;23318;50.966;5.284;2023-01-29T02:52:56;-1.50;99.90
37460;DHT22;23318;50.966;5.284;2023-01-29T02:57:59;-1.50;99.90
37460;DHT22;23318;50.966;5.284;2023-01-29T03:00:29;-1.60;99.90
37460;DHT22;23318;50.966;5.284;2023-01-29T03:03:19;-1.50;99.90
37460;DHT22;23318;50.966;5.284;2023-01-29T03:06:01;-1.70;99.90
37460;DHT22;23318;50.966;5.284;2023-01-29T03:11:06;-1.50;99.90
37460;DHT22;23318;50.966;5.284;2023-01-29T03:19:14;-1.80;99.90
37460;DHT22;23318;50.966;5.284;2023-01-29T03:21:47;-1.80;99.90
37460;DHT22;23318;50.966;5.284;2023-01-29T03:24:20;-1.70;99.90
37460;DHT22;23318;50.966;5.284;2023-01-29T03:27:08;-1.60;99.90
37460;DHT22;23318;50.966;5.284;2023-01-29T03:29:54;-1.60;99.90
37460;DHT22;23318;50.966;5.284;2023-01-29T03:32:39;-1.60;99.90
37460;DHT22;23318;50.966;5.284;2023-01-29T03:35:08;-1.60;99.90
37460;DHT22;23318;50.966;5.284;2023-01-29T03:37:39;-1.50;99.90
37460;DHT22;23318;50.966;5.284;2023-01-29T03:40:07;-1.60;99.90
37460;DHT22;23318;50.966;5.284;2023-01-29T03:43:10;-1.70;99.90
37460;DHT22;23318;50.966;5.284;2023-01-29T03:48:42;-2.00;99.90
37460;DHT22;23318;50.966;5.284;2023-01-29T03:56:33;-1.60;99.90
37460;DHT22;23318;50.966;5.284;2023-01-29T04:02:15;-1.70;99.90
37460;DHT22;23318;50.966;5.284;2023-01-29T04:04:45;-1.70;99.90
37460;DHT22;23318;50.966;5.284;2023-01-29T04:07:19;-1.60;99.90
37460;DHT22;23318;50.966;5.284;2023-01-29T04:10:20;-1.60;99.90
37460;DHT22;23318;50.966;5.284;2023-01-29T04:12:59;-1.50;99.90
37460;DHT22;23318;50.966;5.284;2023-01-29T04:15:28;-1.70;99.90
37460;DHT22;23318;50.966;5.284;2023-01-29T04:17:55;-1.70;99.90
37460;DHT22;23318;50.966;5.284;2023-01-29T04:20:21;-1.70;99.90
37460;DHT22;23318;50.966;5.284;2023-01-29T04:22:51;-1.70;99.90
37460;DHT22;23318;50.966;5.284;2023-01-29T04:25:22;-1.60;99.90
37460;DHT22;23318;50.966;5.284;2023-01-29T04:30:51;-1.80;99.90
37460;DHT22;23318;50.966;5.284;2023-01-29T04:39:28;-1.80;99.90
37460;DHT22;23318;50.966;5.284;2023-01-29T04:42:27;-1.80;99.90
37460;DHT22;23318;50.966;5.284;2023-01-29T04:48:04;-1.90;99.90
37460;DHT22;23318;50.966;5.284;2023-01-29T04:50:55;-1.90;99.90
37460;DHT22;23318;50.966;5.284;2023-01-29T04:53:34;-1.70;99.90
37460;DHT22;23318;50.966;5.284;2023-01-29T05:01:04;-1.80;99.90
37460;DHT22;23318;50.966;5.284;2023-01-29T05:03:32;-1.60;99.90
37460;DHT22;23318;50.966;5.284;2023-01-29T05:05:59;-1.60;99.90
37460;DHT22;23318;50.966;5.284;2023-01-29T05:08:28;-1.70;99.90
37460;DHT22;23318;50.966;5.284;2023-01-29T05:10:56;-1.70;99.90
37460;DHT22;23318;50.966;5.284;2023-01-29T05:13:24;-1.60;99.90
37460;DHT22;23318;50.966;5.284;2023-01-29T05:16:01;-1.60;99.90
37460;DHT22;23318;50.966;5.284;2023-01-29T05:18:29;-1.60;99.90
37460;DHT22;23318;50.966;5.284;2023-01-29T05:20:55;-1.60;99.90
37460;DHT22;23318;50.966;5.284;2023-01-29T05:23:21;-1.60;99.90
37460;DHT22;23318;50.966;5.284;2023-01-29T05:25:49;-1.70;99.90
37460;DHT22;23318;50.966;5.284;2023-01-29T05:28:16;-1.60;99.90
37460;DHT22;23318;50.966;5.284;2023-01-29T05:30:47;-1.50;99.90
37460;DHT22;23318;50.966;5.284;2023-01-29T05:33:25;-1.40;99.90
37460;DHT22;23318;50.966;5.284;2023-01-29T05:35:52;-1.40;99.90
37460;DHT22;23318;50.966;5.284;2023-01-29T05:38:18;-1.30;99.90
37460;DHT22;23318;50.966;5.284;2023-01-29T05:40:44;-1.30;99.90
37460;DHT22;23318;50.966;5.284;2023-01-29T05:43:18;-1.30;99.90
37460;DHT22;23318;50.966;5.284;2023-01-29T05:45:58;-1.50;99.90
37460;DHT22;23318;50.966;5.284;2023-01-29T05:48:25;-1.30;99.90
37460;DHT22;23318;50.966;5.284;2023-01-29T05:50:53;-1.20;99.90
37460;DHT22;23318;50.966;5.284;2023-01-29T05:53:19;-0.90;99.90
37460;DHT22;23318;50.966;5.284;2023-01-29T05:55:46;-0.80;99.90
37460;DHT22;23318;50.966;5.284;2023-01-29T05:58:12;-0.80;99.90
37460;DHT22;23318;50.966;5.284;2023-01-29T06:00:38;-0.70;99.90
37460;DHT22;23318;50.966;5.284;2023-01-29T06:03:04;-0.60;99.90
37460;DHT22;23318;50.966;5.284;2023-01-29T06:05:30;-0.70;99.90
37460;DHT22;23318;50.966;5.284;2023-01-29T06:07:56;-0.50;99.90
37460;DHT22;23318;50.966;5.284;2023-01-29T06:10:21;-0.40;99.90
37460;DHT22;23318;50.966;5.284;2023-01-29T06:12:47;-0.20;99.90
37460;DHT22;23318;50.966;5.284;2023-01-29T06:15:13;-0.10;99.90
37460;DHT22;23318;50.966;5.284;2023-01-29T06:17:42;0.00;99.90
37460;DHT22;23318;50.966;5.284;2023-01-29T06:20:08;0.10;99.90
37460;DHT22;23318;50.966;5.284;2023-01-29T06:22:34;0.20;99.90
37460;DHT22;23318;50.966;5.284;2023-01-29T06:25:00;0.20;99.90
37460;DHT22;23318;50.966;5.284;2023-01-29T06:27:25;0.30;99.90
37460;DHT22;23318;50.966;5.284;2023-01-29T06:29:51;0.30;99.90
37460;DHT22;23318;50.966;5.284;2023-01-29T06:32:17;0.40;99.90
37460;DHT22;23318;50.966;5.284;2023-01-29T06:34:42;0.40;99.90
37460;DHT22;23318;50.966;5.284;2023-01-29T06:37:08;0.30;99.90
37460;DHT22;23318;50.966;5.284;2023-01-29T06:39:34;0.40;99.90
37460;DHT22;23318;50.966;5.284;2023-01-29T06:41:59;0.40;99.90
37460;DHT22;23318;50.966;5.284;2023-01-29T06:44:25;0.40;99.90
37460;DHT22;23318;50.966;5.284;2023-01-29T06:46:51;0.30;99.90
37460;DHT22;23318;50.966;5.284;2023-01-29T06:49:16;0.30;99.90
37460;DHT22;23318;50.966;5.284;2023-01-29T06:51:42;0.30;99.90
37460;DHT22;23318;50.966;5.284;2023-01-29T06:54:09;0.30;99.90
37460;DHT22;23318;50.966;5.284;2023-01-29T06:56:35;0.30;99.90
37460;DHT22;23318;50.966;5.284;2023-01-29T06:59:01;0.30;99.90
37460;DHT22;23318;50.966;5.284;2023-01-29T07:01:27;0.40;99.90
37460;DHT22;23318;50.966;5.284;2023-01-29T07:03:52;0.40;99.90
37460;DHT22;23318;50.966;5.284;2023-01-29T07:06:18;0.50;99.90
37460;DHT22;23318;50.966;5.284;2023-01-29T07:08:44;0.40;99.90
37460;DHT22;23318;50.966;5.284;2023-01-29T07:11:10;0.40;99.90
37460;DHT22;23318;50.966;5.284;2023-01-29T07:13:36;0.40;99.90
37460;DHT22;23318;50.966;5.284;2023-01-29T07:16:03;0.20;99.90
37460;DHT22;23318;50.966;5.284;2023-01-29T07:18:29;0.40;99.90
37460;DHT22;23318;50.966;5.284;2023-01-29T07:20:56;0.60;99.90
37460;DHT22;23318;50.966;5.284;2023-01-29T07:23:22;0.70;99.90
37460;DHT22;23318;50.966;5.284;2023-01-29T07:25:48;0.60;99.90
37460;DHT22;23318;50.966;5.284;2023-01-29T07:28:17;0.60;99.90
37460;DHT22;23318;50.966;5.284;2023-01-29T07:30:43;0.60;99.90
37460;DHT22;23318;50.966;5.284;2023-01-29T07:33:09;0.80;99.90
37460;DHT22;23318;50.966;5.284;2023-01-29T07:35:37;0.90;99.90
37460;DHT22;23318;50.966;5.284;2023-01-29T07:38:03;0.80;99.90
37460;DHT22;23318;50.966;5.284;2023-01-29T07:40:29;0.90;99.90
37460;DHT22;23318;50.966;5.284;2023-01-29T07:43:03;0.80;99.90
37460;DHT22;23318;50.966;5.284;2023-01-29T07:45:29;0.80;99.90
37460;DHT22;23318;50.966;5.284;2023-01-29T07:47:56;1.00;99.90
37460;DHT22;23318;50.966;5.284;2023-01-29T07:50:26;1.10;99.90
37460;DHT22;23318;50.966;5.284;2023-01-29T07:52:55;0.80;99.90
37460;DHT22;23318;50.966;5.284;2023-01-29T07:55:21;0.50;99.90
37460;DHT22;23318;50.966;5.284;2023-01-29T07:57:46;0.30;99.90
37460;DHT22;23318;50.966;5.284;2023-01-29T08:00:13;0.60;99.90
37460;DHT22;23318;50.966;5.284;2023-01-29T08:02:40;0.50;99.90
37460;DHT22;23318;50.966;5.284;2023-01-29T08:05:06;0.50;99.90
37460;DHT22;23318;50.966;5.284;2023-01-29T08:07:32;0.70;99.90
37460;DHT22;23318;50.966;5.284;2023-01-29T08:09:58;0.80;99.90
37460;DHT22;23318;50.966;5.284;2023-01-29T08:12:23;0.50;99.90
37460;DHT22;23318;50.966;5.284;2023-01-29T08:14:49;0.50;99.90
37460;DHT22;23318;50.966;5.284;2023-01-29T08:17:15;0.50;99.90
37460;DHT22;23318;50.966;5.284;2023-01-29T08:19:40;0.70;99.90
37460;DHT22;23318;50.966;5.284;2023-01-29T08:22:06;0.70;99.90
37460;DHT22;23318;50.966;5.284;2023-01-29T08:24:32;1.00;99.90
37460;DHT22;23318;50.966;5.284;2023-01-29T08:26:57;0.50;99.90
37460;DHT22;23318;50.966;5.284;2023-01-29T08:29:23;0.90;99.90
37460;DHT22;23318;50.966;5.284;2023-01-29T08:31:49;1.10;99.90
37460;DHT22;23318;50.966;5.284;2023-01-29T08:34:15;0.80;99.90
37460;DHT22;23318;50.966;5.284;2023-01-29T08:36:40;1.00;99.90
37460;DHT22;23318;50.966;5.284;2023-01-29T08:39:06;1.20;99.90
37460;DHT22;23318;50.966;5.284;2023-01-29T08:41:32;1.10;99.90
37460;DHT22;23318;50.966;5.284;2023-01-29T08:43:58;1.10;99.90
37460;DHT22;23318;50.966;5.284;2023-01-29T08:46:25;1.20;99.90
37460;DHT22;23318;50.966;5.284;2023-01-29T08:48:51;1.30;99.90
37460;DHT22;23318;50.966;5.284;2023-01-29T08:51:16;1.10;99.90
37460;DHT22;23318;50.966;5.284;2023-01-29T08:53:42;1.10;99.90
37460;DHT22;23318;50.966;5.284;2023-01-29T08:56:08;1.10;99.90
37460;DHT22;23318;50.966;5.284;2023-01-29T08:58:34;1.20;99.90
37460;DHT22;23318;50.966;5.284;2023-01-29T09:01:10;1.30;99.90
37460;DHT22;23318;50.966;5.284;2023-01-29T09:03:36;1.20;99.90
37460;DHT22;23318;50.966;5.284;2023-01-29T09:06:02;1.40;99.90
37460;DHT22;23318;50.966;5.284;2023-01-29T09:08:28;1.60;99.90
37460;DHT22;23318;50.966;5.284;2023-01-29T09:10:53;1.80;99.90
37460;DHT22;23318;50.966;5.284;2023-01-29T09:13:19;2.00;99.90
37460;DHT22;23318;50.966;5.284;2023-01-29T09:15:45;1.80;99.90
37460;DHT22;23318;50.966;5.284;2023-01-29T09:18:10;1.50;99.90
37460;DHT22;23318;50.966;5.284;2023-01-29T09:20:36;1.60;99.90
37460;DHT22;23318;50.966;5.284;2023-01-29T09:23:06;1.80;99.90
37460;DHT22;23318;50.966;5.284;2023-01-29T09:25:33;1.90;99.90
37460;DHT22;23318;50.966;5.284;2023-01-29T09:27:59;1.90;99.90
37460;DHT22;23318;50.966;5.284;2023-01-29T09:30:25;1.80;99.90
37460;DHT22;23318;50.966;5.284;2023-01-29T09:32:50;1.80;99.90
37460;DHT22;23318;50.966;5.284;2023-01-29T09:35:16;1.80;99.90
37460;DHT22;23318;50.966;5.284;2023-01-29T09:37:41;1.90;99.90
37460;DHT22;23318;50.966;5.284;2023-01-29T09:43:03;2.00;99.90
37460;DHT22;23318;50.966;5.284;2023-01-29T09:45:31;2.30;99.90
37460;DHT22;23318;50.966;5.284;2023-01-29T09:48:02;2.60;99.90
37460;DHT22;23318;50.966;5.284;2023-01-29T09:50:40;2.60;99.90
37460;DHT22;23318;50.966;5.284;2023-01-29T09:53:20;2.00;99.90
37460;DHT22;23318;50.966;5.284;2023-01-29T09:56:05;1.40;99.90
37460;DHT22;23318;50.966;5.284;2023-01-29T09:58:34;1.60;99.90
37460;DHT22;23318;50.966;5.284;2023-01-29T10:12:41;2.00;99.90
37460;DHT22;23318;50.966;5.284;2023-01-29T10:25:34;1.50;99.90
37460;DHT22;23318;50.966;5.284;2023-01-29T10:28:01;1.60;99.90
37460;DHT22;23318;50.966;5.284;2023-01-29T10:30:28;1.40;99.90
37460;DHT22;23318;50.966;5.284;2023-01-29T10:33:00;1.40;99.90
37460;DHT22;23318;50.966;5.284;2023-01-29T10:35:33;1.80;99.90
37460;DHT22;23318;50.966;5.284;2023-01-29T10:38:36;1.90;99.90
37460;DHT22;23318;50.966;5.284;2023-01-29T10:52:09;1.80;99.90
37460;DHT22;23318;50.966;5.284;2023-01-29T10:59:44;2.30;99.90
37460;DHT22;23318;50.966;5.284;2023-01-29T11:02:15;1.80;99.90
37460;DHT22;23318;50.966;5.284;2023-01-29T11:04:42;1.90;99.90
37460;DHT22;23318;50.966;5.284;2023-01-29T11:07:08;2.20;99.90
37460;DHT22;23318;50.966;5.284;2023-01-29T11:10:06;2.20;99.90
37460;DHT22;23318;50.966;5.284;2023-01-29T11:12:34;2.20;99.90
37460;DHT22;23318;50.966;5.284;2023-01-29T11:17:31;2.10;99.90
37460;DHT22;23318;50.966;5.284;2023-01-29T11:19:56;2.30;99.90
37460;DHT22;23318;50.966;5.284;2023-01-29T11:22:27;2.10;99.90
37460;DHT22;23318;50.966;5.284;2023-01-29T11:27:44;2.10;99.90
37460;DHT22;23318;50.966;5.284;2023-01-29T11:30:36;2.40;99.90
37460;DHT22;23318;50.966;5.284;2023-01-29T11:33:18;2.40;99.90
37460;DHT22;23318;50.966;5.284;2023-01-29T11:35:45;2.10;99.90
37460;DHT22;23318;50.966;5.284;2023-01-29T11:38:21;1.90;99.90
37460;DHT22;23318;50.966;5.284;2023-01-29T11:40:48;2.20;99.90
37460;DHT22;23318;50.966;5.284;2023-01-29T11:45:43;2.20;99.90
37460;DHT22;23318;50.966;5.284;2023-01-29T11:48:17;2.20;99.90
37460;DHT22;23318;50.966;5.284;2023-01-29T11:50:51;2.30;99.90
37460;DHT22;23318;50.966;5.284;2023-01-29T11:55:56;2.70;99.90
37460;DHT22;23318;50.966;5.284;2023-01-29T11:58:27;2.40;99.90
37460;DHT22;23318;50.966;5.284;2023-01-29T12:00:54;2.50;99.90
37460;DHT22;23318;50.966;5.284;2023-01-29T12:03:38;2.60;99.90
37460;DHT22;23318;50.966;5.284;2023-01-29T12:06:07;2.30;99.90
37460;DHT22;23318;50.966;5.284;2023-01-29T12:08:39;2.30;99.90
37460;DHT22;23318;50.966;5.284;2023-01-29T12:13:35;2.50;99.90
37460;DHT22;23318;50.966;5.284;2023-01-29T12:16:32;2.80;99.90
37460;DHT22;23318;50.966;5.284;2023-01-29T12:21:39;2.90;99.90
37460;DHT22;23318;50.966;5.284;2023-01-29T12:27:29;2.50;99.90
37460;DHT22;23318;50.966;5.284;2023-01-29T12:33:00;2.70;99.90
37460;DHT22;23318;50.966;5.284;2023-01-29T12:35:34;3.00;99.90
37460;DHT22;23318;50.966;5.284;2023-01-29T12:40:57;2.70;99.90
37460;DHT22;23318;50.966;5.284;2023-01-29T12:43:42;2.60;99.90
37460;DHT22;23318;50.966;5.284;2023-01-29T12:46:21;2.80;99.90
37460;DHT22;23318;50.966;5.284;2023-01-29T12:48:48;3.10;99.90
37460;DHT22;23318;50.966;5.284;2023-01-29T12:51:20;2.80;99.90
37460;DHT22;23318;50.966;5.284;2023-01-29T12:53:53;2.90;99.90
37460;DHT22;23318;50.966;5.284;2023-01-29T12:59:03;2.60;99.90
37460;DHT22;23318;50.966;5.284;2023-01-29T13:01:35;2.70;99.90
37460;DHT22;23318;50.966;5.284;2023-01-29T13:04:08;2.90;99.90
37460;DHT22;23318;50.966;5.284;2023-01-29T13:06:41;3.00;99.90
37460;DHT22;23318;50.966;5.284;2023-01-29T13:09:21;2.80;99.90
37460;DHT22;23318;50.966;5.284;2023-01-29T13:12:12;3.00;99.90
37460;DHT22;23318;50.966;5.284;2023-01-29T13:14:53;3.00;99.90
37460;DHT22;23318;50.966;5.284;2023-01-29T13:17:27;2.90;99.90
37460;DHT22;23318;50.966;5.284;2023-01-29T13:19:56;2.90;99.90
37460;DHT22;23318;50.966;5.284;2023-01-29T13:22:26;2.90;99.90
37460;DHT22;23318;50.966;5.284;2023-01-29T13:24:53;2.80;99.90
37460;DHT22;23318;50.966;5.284;2023-01-29T13:27:27;2.80;99.90
37460;DHT22;23318;50.966;5.284;2023-01-29T13:29:55;2.80;99.90
37460;DHT22;23318;50.966;5.284;2023-01-29T13:32:26;2.90;99.90
37460;DHT22;23318;50.966;5.284;2023-01-29T13:34:55;3.00;99.90
37460;DHT22;23318;50.966;5.284;2023-01-29T13:37:36;2.90;99.90
37460;DHT22;23318;50.966;5.284;2023-01-29T13:40:04;2.90;99.90
37460;DHT22;23318;50.966;5.284;2023-01-29T13:42:43;2.90;99.90
37460;DHT22;23318;50.966;5.284;2023-01-29T13:47:51;2.90;99.90
37460;DHT22;23318;50.966;5.284;2023-01-29T13:50:28;2.90;99.90
37460;DHT22;23318;50.966;5.284;2023-01-29T13:55:29;2.90;99.90
37460;DHT22;23318;50.966;5.284;2023-01-29T13:57:56;2.80;99.90
37460;DHT22;23318;50.966;5.284;2023-01-29T14:05:44;2.90;99.90
37460;DHT22;23318;50.966;5.284;2023-01-29T14:08:43;2.80;99.90
37460;DHT22;23318;50.966;5.284;2023-01-29T14:13:45;3.00;99.90
37460;DHT22;23318;50.966;5.284;2023-01-29T14:18:47;3.00;99.90
37460;DHT22;23318;50.966;5.284;2023-01-29T14:26:24;3.00;99.90
37460;DHT22;23318;50.966;5.284;2023-01-29T14:31:30;3.00;99.90
37460;DHT22;23318;50.966;5.284;2023-01-29T14:34:02;3.10;99.90
37460;DHT22;23318;50.966;5.284;2023-01-29T14:36:38;3.10;99.90
37460;DHT22;23318;50.966;5.284;2023-01-29T14:39:04;3.10;99.90
37460;DHT22;23318;50.966;5.284;2023-01-29T14:41:32;3.10;99.90
37460;DHT22;23318;50.966;5.284;2023-01-29T14:47:02;3.30;99.90
37460;DHT22;23318;50.966;5.284;2023-01-29T14:52:52;3.10;99.90
37460;DHT22;23318;50.966;5.284;2023-01-29T14:55:29;3.20;99.90
37460;DHT22;23318;50.966;5.284;2023-01-29T14:58:00;3.20;99.90
37460;DHT22;23318;50.966;5.284;2023-01-29T15:00:29;3.20;99.90
37460;DHT22;23318;50.966;5.284;2023-01-29T15:02:57;3.20;99.90
37460;DHT22;23318;50.966;5.284;2023-01-29T15:05:27;3.30;99.90
37460;DHT22;23318;50.966;5.284;2023-01-29T15:19:17;3.30;99.90
37460;DHT22;23318;50.966;5.284;2023-01-29T15:24:35;3.30;99.90
37460;DHT22;23318;50.966;5.284;2023-01-29T15:27:01;3.30;99.90
37460;DHT22;23318;50.966;5.284;2023-01-29T15:29:28;3.60;99.90
37460;DHT22;23318;50.966;5.284;2023-01-29T15:31:55;3.40;99.90
37460;DHT22;23318;50.966;5.284;2023-01-29T15:34:21;3.40;99.90
37460;DHT22;23318;50.966;5.284;2023-01-29T15:36:48;3.40;99.90
37460;DHT22;23318;50.966;5.284;2023-01-29T15:39:15;3.30;99.90
37460;DHT22;23318;50.966;5.284;2023-01-29T15:41:42;3.50;99.90
37460;DHT22;23318;50.966;5.284;2023-01-29T15:44:16;3.40;99.90
37460;DHT22;23318;50.966;5.284;2023-01-29T15:46:47;3.40;99.90
37460;DHT22;23318;50.966;5.284;2023-01-29T15:49:31;3.60;99.90
37460;DHT22;23318;50.966;5.284;2023-01-29T15:51:58;3.40;99.90
37460;DHT22;23318;50.966;5.284;2023-01-29T15:54:28;3.40;99.90
37460;DHT22;23318;50.966;5.284;2023-01-29T15:56:55;3.40;99.90
37460;DHT22;23318;50.966;5.284;2023-01-29T15:59:24;3.30;99.90
37460;DHT22;23318;50.966;5.284;2023-01-29T16:01:50;3.30;99.90
37460;DHT22;23318;50.966;5.284;2023-01-29T16:04:21;3.30;99.90
37460;DHT22;23318;50.966;5.284;2023-01-29T16:06:50;3.40;99.90
37460;DHT22;23318;50.966;5.284;2023-01-29T16:09:19;3.30;99.90
37460;DHT22;23318;50.966;5.284;2023-01-29T16:11:46;3.40;99.90
37460;DHT22;23318;50.966;5.284;2023-01-29T16:14:14;3.30;99.90
37460;DHT22;23318;50.966;5.284;2023-01-29T16:16:42;3.30;99.90
37460;DHT22;23318;50.966;5.284;2023-01-29T16:19:27;3.30;99.90
37460;DHT22;23318;50.966;5.284;2023-01-29T16:22:01;3.30;99.90
37460;DHT22;23318;50.966;5.284;2023-01-29T16:24:27;3.30;99.90
37460;DHT22;23318;50.966;5.284;2023-01-29T16:26:59;3.20;99.90
37460;DHT22;23318;50.966;5.284;2023-01-29T16:29:30;3.10;99.90
37460;DHT22;23318;50.966;5.284;2023-01-29T16:31:58;3.20;99.90
37460;DHT22;23318;50.966;5.284;2023-01-29T16:34:36;3.20;99.90
37460;DHT22;23318;50.966;5.284;2023-01-29T16:37:06;3.20;99.90
37460;DHT22;23318;50.966;5.284;2023-01-29T16:39:44;3.10;99.90
37460;DHT22;23318;50.966;5.284;2023-01-29T16:44:39;3.20;99.90
37460;DHT22;23318;50.966;5.284;2023-01-29T16:47:30;3.20;99.90
37460;DHT22;23318;50.966;5.284;2023-01-29T16:50:22;3.10;99.90
37460;DHT22;23318;50.966;5.284;2023-01-29T16:53:03;3.00;99.90
37460;DHT22;23318;50.966;5.284;2023-01-29T16:55:41;3.00;99.90
37460;DHT22;23318;50.966;5.284;2023-01-29T16:58:30;3.00;99.90
37460;DHT22;23318;50.966;5.284;2023-01-29T17:01:00;3.00;99.90
37460;DHT22;23318;50.966;5.284;2023-01-29T17:03:27;3.10;99.90
37460;DHT22;23318;50.966;5.284;2023-01-29T17:05:54;3.00;99.90
37460;DHT22;23318;50.966;5.284;2023-01-29T17:08:24;3.10;99.90
37460;DHT22;23318;50.966;5.284;2023-01-29T17:10:51;3.10;99.90
37460;DHT22;23318;50.966;5.284;2023-01-29T17:13:43;3.00;99.90
37460;DHT22;23318;50.966;5.284;2023-01-29T17:16:27;3.00;99.90
37460;DHT22;23318;50.966;5.284;2023-01-29T17:18:53;3.00;99.90
37460;DHT22;23318;50.966;5.284;2023-01-29T17:21:19;3.00;99.90
37460;DHT22;23318;50.966;5.284;2023-01-29T17:23:45;2.90;99.90
37460;DHT22;23318;50.966;5.284;2023-01-29T17:26:12;2.90;99.90
37460;DHT22;23318;50.966;5.284;2023-01-29T17:28:42;2.90;99.90
37460;DHT22;23318;50.966;5.284;2023-01-29T17:31:08;3.00;99.90
37460;DHT22;23318;50.966;5.284;2023-01-29T17:33:36;3.00;99.90
37460;DHT22;23318;50.966;5.284;2023-01-29T17:36:02;3.00;99.90
37460;DHT22;23318;50.966;5.284;2023-01-29T17:38:28;3.00;99.90
37460;DHT22;23318;50.966;5.284;2023-01-29T17:41:26;3.00;99.90
37460;DHT22;23318;50.966;5.284;2023-01-29T17:43:53;3.00;99.90
37460;DHT22;23318;50.966;5.284;2023-01-29T17:46:19;3.00;99.90
37460;DHT22;23318;50.966;5.284;2023-01-29T17:48:45;3.00;99.90
37460;DHT22;23318;50.966;5.284;2023-01-29T17:51:15;3.10;99.90
37460;DHT22;23318;50.966;5.284;2023-01-29T17:53:42;3.00;99.90
37460;DHT22;23318;50.966;5.284;2023-01-29T17:56:22;3.10;99.90
37460;DHT22;23318;50.966;5.284;2023-01-29T17:58:48;3.00;99.90
37460;DHT22;23318;50.966;5.284;2023-01-29T18:01:14;3.10;99.90
37460;DHT22;23318;50.966;5.284;2023-01-29T18:03:39;3.10;99.90
37460;DHT22;23318;50.966;5.284;2023-01-29T18:06:06;3.10;99.90
37460;DHT22;23318;50.966;5.284;2023-01-29T18:08:35;3.10;99.90
37460;DHT22;23318;50.966;5.284;2023-01-29T18:11:01;3.20;99.90
37460;DHT22;23318;50.966;5.284;2023-01-29T18:13:27;3.10;99.90
37460;DHT22;23318;50.966;5.284;2023-01-29T18:15:53;2.90;99.90
37460;DHT22;23318;50.966;5.284;2023-01-29T18:18:20;2.80;99.90
37460;DHT22;23318;50.966;5.284;2023-01-29T18:20:46;2.90;99.90
37460;DHT22;23318;50.966;5.284;2023-01-29T18:23:13;2.80;99.90
37460;DHT22;23318;50.966;5.284;2023-01-29T18:25:39;2.80;99.90
37460;DHT22;23318;50.966;5.284;2023-01-29T18:28:05;2.90;99.90
37460;DHT22;23318;50.966;5.284;2023-01-29T18:30:31;2.80;99.90
37460;DHT22;23318;50.966;5.284;2023-01-29T18:32:57;2.80;99.90
37460;DHT22;23318;50.966;5.284;2023-01-29T18:35:24;2.80;99.90
37460;DHT22;23318;50.966;5.284;2023-01-29T18:37:50;2.90;99.90
37460;DHT22;23318;50.966;5.284;2023-01-29T18:40:16;3.00;99.90
37460;DHT22;23318;50.966;5.284;2023-01-29T18:42:46;3.00;99.90
37460;DHT22;23318;50.966;5.284;2023-01-29T18:45:12;3.00;99.90
37460;DHT22;23318;50.966;5.284;2023-01-29T18:47:39;3.00;99.90
37460;DHT22;23318;50.966;5.284;2023-01-29T18:50:05;3.10;99.90
37460;DHT22;23318;50.966;5.284;2023-01-29T18:52:32;3.10;99.90